createdAt,value
2022-11-30T00:01:50.000Z,7.56
2022-11-30T00:04:17.807Z,7.55
2022-11-30T00:06:47.024Z,7.56
2022-11-30T00:09:15.067Z,7.55
2022-11-30T00:11:42.907Z,7.55
2022-11-30T00:14:10.686Z,7.54
2022-11-30T00:16:38.644Z,7.54
2022-11-30T00:19:06.469Z,7.54
2022-11-30T00:21:34.256Z,7.54
2022-11-30T00:24:03.374Z,7.54
2022-11-30T00:26:31.128Z,7.52
2022-11-30T00:28:58.898Z,7.52
2022-11-30T00:31:28.057Z,7.52
2022-11-30T00:33:56.175Z,7.52
2022-11-30T00:36:24.174Z,7.52
2022-11-30T00:38:53.124Z,7.54
2022-11-30T00:41:22.603Z,7.54
2022-11-30T00:43:50.369Z,7.53
2022-11-30T00:46:18.412Z,7.53
2022-11-30T00:48:46.423Z,7.53
2022-11-30T00:51:16.173Z,7.54
2022-11-30T00:53:44.634Z,7.53
2022-11-30T00:56:12.383Z,7.53
2022-11-30T00:58:41.983Z,7.54
2022-11-30T01:01:10.117Z,7.52
2022-11-30T01:03:38.005Z,7.52
2022-11-30T01:06:06.885Z,7.53
2022-11-30T01:08:35.101Z,7.52
2022-11-30T01:11:07.621Z,7.53
2022-11-30T01:13:35.464Z,7.49
2022-11-30T01:16:10.582Z,7.53
2022-11-30T01:18:39.116Z,7.51
2022-11-30T01:21:08.144Z,7.51
2022-11-30T01:23:35.985Z,7.49
2022-11-30T01:26:04.035Z,7.50
2022-11-30T01:28:31.904Z,7.50
2022-11-30T01:31:00.385Z,7.49
2022-11-30T01:33:29.647Z,7.49
2022-11-30T01:36:01.964Z,7.49
2022-11-30T01:38:33.402Z,7.48
2022-11-30T01:41:01.315Z,7.46
2022-11-30T01:43:39.827Z,7.49
2022-11-30T01:46:18.843Z,7.47
2022-11-30T01:48:51.517Z,7.48
2022-11-30T01:51:19.369Z,7.45
2022-11-30T01:53:47.333Z,7.46
2022-11-30T01:56:15.402Z,7.47
2022-11-30T01:58:46.142Z,7.45
2022-11-30T02:01:14.026Z,7.46
2022-11-30T02:03:50.113Z,7.48
2022-11-30T02:06:20.012Z,7.48
2022-11-30T02:08:47.944Z,7.47
2022-11-30T02:11:17.036Z,7.47
2022-11-30T02:14:02.757Z,7.50
2022-11-30T02:16:41.056Z,7.49
2022-11-30T02:19:29.805Z,7.49
2022-11-30T02:22:04.600Z,7.49
2022-11-30T02:24:50.831Z,7.49
2022-11-30T02:27:38.564Z,7.48
2022-11-30T02:30:11.372Z,7.47
2022-11-30T02:32:47.510Z,7.47
2022-11-30T02:35:18.281Z,7.47
2022-11-30T02:37:47.168Z,7.47
2022-11-30T02:40:16.958Z,7.48
2022-11-30T02:42:44.803Z,7.47
2022-11-30T02:45:14.572Z,7.49
2022-11-30T02:47:47.884Z,7.50
2022-11-30T02:50:19.684Z,7.49
2022-11-30T02:52:48.043Z,7.49
2022-11-30T02:55:18.429Z,7.49
2022-11-30T02:57:46.574Z,7.48
2022-11-30T03:00:17.160Z,7.50
2022-11-30T03:02:45.005Z,7.49
2022-11-30T03:05:12.830Z,7.49
2022-11-30T03:07:40.713Z,7.50
2022-11-30T03:10:10.171Z,7.52
2022-11-30T03:12:38.548Z,7.51
2022-11-30T03:15:07.428Z,7.52
2022-11-30T03:17:36.636Z,7.52
2022-11-30T03:20:05.272Z,7.51
2022-11-30T03:22:33.082Z,7.51
2022-11-30T03:25:00.855Z,7.51
2022-11-30T03:27:28.747Z,7.51
2022-11-30T03:29:56.639Z,7.52
2022-11-30T03:32:24.576Z,7.52
2022-11-30T03:34:53.765Z,7.52
2022-11-30T03:37:21.573Z,7.52
2022-11-30T03:39:53.575Z,7.52
2022-11-30T03:42:24.364Z,7.51
2022-11-30T03:44:52.190Z,7.52
2022-11-30T03:47:20.014Z,7.53
2022-11-30T03:49:47.993Z,7.52
2022-11-30T03:52:17.194Z,7.52
2022-11-30T03:54:45.277Z,7.51
2022-11-30T03:57:13.376Z,7.52
2022-11-30T03:59:41.157Z,7.52
2022-11-30T04:02:08.991Z,7.52
2022-11-30T04:04:36.771Z,7.52
2022-11-30T04:09:46.644Z,7.51
2022-11-30T04:12:14.457Z,7.51
2022-11-30T04:14:42.266Z,7.50
2022-11-30T04:17:10.094Z,7.50
2022-11-30T04:19:37.870Z,7.50
2022-11-30T04:22:05.689Z,7.50
2022-11-30T04:24:33.507Z,7.51
2022-11-30T04:27:02.711Z,7.50
2022-11-30T04:29:30.499Z,7.49
2022-11-30T04:31:58.495Z,7.49
2022-11-30T04:34:28.352Z,7.49
2022-11-30T04:37:00.287Z,7.49
2022-11-30T04:39:28.616Z,7.47
2022-11-30T04:41:56.551Z,7.49
2022-11-30T04:44:26.080Z,7.49
2022-11-30T04:46:54.052Z,7.49
2022-11-30T04:49:21.903Z,7.49
2022-11-30T04:51:49.661Z,7.48
2022-11-30T04:54:17.746Z,7.48
2022-11-30T04:56:45.496Z,7.47
2022-11-30T04:59:13.622Z,7.48
2022-11-30T05:01:43.184Z,7.48
2022-11-30T05:04:11.715Z,7.48
2022-11-30T05:06:39.629Z,7.46
2022-11-30T05:09:07.639Z,7.46
2022-11-30T05:11:35.459Z,7.44
2022-11-30T05:14:03.259Z,7.44
2022-11-30T05:16:31.200Z,7.43
2022-11-30T05:19:00.392Z,7.43
2022-11-30T05:21:28.179Z,7.41
2022-11-30T05:23:55.975Z,7.41
2022-11-30T05:26:23.933Z,7.41
2022-11-30T05:28:51.719Z,7.40
2022-11-30T05:31:19.660Z,7.38
2022-11-30T05:33:51.833Z,7.39
2022-11-30T05:36:21.918Z,7.35
2022-11-30T05:38:50.142Z,7.34
2022-11-30T05:41:17.932Z,7.33
2022-11-30T05:43:45.737Z,7.30
2022-11-30T05:46:13.647Z,7.29
2022-11-30T05:48:41.506Z,7.27
2022-11-30T05:51:11.510Z,7.26
2022-11-30T05:53:40.818Z,7.26
2022-11-30T05:56:12.615Z,7.25
2022-11-30T05:58:41.263Z,7.24
2022-11-30T06:01:09.300Z,7.23
2022-11-30T06:03:37.411Z,7.23
2022-11-30T06:06:05.522Z,7.22
2022-11-30T06:08:33.418Z,7.22
2022-11-30T06:11:02.930Z,7.24
2022-11-30T06:13:32.456Z,7.22
2022-11-30T06:16:00.557Z,7.22
2022-11-30T06:18:28.571Z,7.20
2022-11-30T06:21:00.066Z,7.20
2022-11-30T06:23:27.857Z,7.21
2022-11-30T06:25:55.686Z,7.20
2022-11-30T06:28:25.170Z,7.21
2022-11-30T06:30:52.965Z,7.19
2022-11-30T06:33:23.904Z,7.20
2022-11-30T06:35:51.946Z,7.18
2022-11-30T06:38:20.668Z,7.18
2022-11-30T06:40:48.685Z,7.17
2022-11-30T06:43:16.808Z,7.16
2022-11-30T06:45:46.713Z,7.18
2022-11-30T06:48:15.148Z,7.16
2022-11-30T06:50:46.973Z,7.15
2022-11-30T06:53:17.998Z,7.14
2022-11-30T06:55:45.803Z,7.14
2022-11-30T06:58:13.662Z,7.14
2022-11-30T07:00:42.881Z,7.12
2022-11-30T07:03:12.947Z,7.14
2022-11-30T07:05:43.993Z,7.13
2022-11-30T07:08:12.231Z,7.12
2022-11-30T07:10:41.627Z,7.11
2022-11-30T07:13:11.892Z,7.11
2022-11-30T07:15:40.189Z,7.09
2022-11-30T07:18:08.443Z,7.10
2022-11-30T07:20:38.516Z,7.11
2022-11-30T07:23:20.470Z,7.09
2022-11-30T07:26:06.470Z,7.08
2022-11-30T07:28:34.960Z,7.07
2022-11-30T07:31:02.881Z,7.08
2022-11-30T07:33:32.509Z,7.09
2022-11-30T07:36:01.658Z,7.09
2022-11-30T07:38:29.416Z,7.08
2022-11-30T07:40:58.922Z,7.09
2022-11-30T07:43:26.868Z,7.08
2022-11-30T07:45:55.133Z,7.08
2022-11-30T07:48:23.491Z,7.09
2022-11-30T07:50:51.576Z,7.09
2022-11-30T07:53:20.734Z,7.09
2022-11-30T07:55:52.747Z,7.09
2022-11-30T07:58:24.580Z,7.10
2022-11-30T08:00:52.833Z,7.11
2022-11-30T08:03:20.665Z,7.10
2022-11-30T08:05:48.454Z,7.11
2022-11-30T08:08:16.336Z,7.11
2022-11-30T08:10:45.442Z,7.13
2022-11-30T08:13:13.305Z,7.12
2022-11-30T08:15:41.155Z,7.12
2022-11-30T08:18:09.127Z,7.13
2022-11-30T08:20:36.896Z,7.12
2022-11-30T08:23:04.762Z,7.13
2022-11-30T08:25:32.593Z,7.14
2022-11-30T08:28:01.935Z,7.16
2022-11-30T08:30:32.838Z,7.15
2022-11-30T08:33:00.877Z,7.16
2022-11-30T08:35:28.620Z,7.15
2022-11-30T08:37:56.484Z,7.16
2022-11-30T08:40:24.404Z,7.17
2022-11-30T08:42:52.414Z,7.16
2022-11-30T08:45:21.580Z,7.17
2022-11-30T08:47:49.372Z,7.17
2022-11-30T08:50:17.192Z,7.18
2022-11-30T08:52:45.091Z,7.17
2022-11-30T08:55:15.631Z,7.18
2022-11-30T08:57:46.345Z,7.18
2022-11-30T09:00:15.283Z,7.19
2022-11-30T09:02:44.537Z,7.20
2022-11-30T09:05:12.756Z,7.18
2022-11-30T09:07:40.879Z,7.17
2022-11-30T09:10:09.631Z,7.19
2022-11-30T09:12:38.356Z,7.17
2022-11-30T09:15:07.444Z,7.18
2022-11-30T09:17:35.620Z,7.17
2022-11-30T09:20:05.751Z,7.19
2022-11-30T09:22:33.545Z,7.17
2022-11-30T09:25:01.476Z,7.17
2022-11-30T09:27:32.083Z,7.18
2022-11-30T09:30:00.236Z,7.17
2022-11-30T09:32:29.090Z,7.19
2022-11-30T09:34:56.935Z,7.19
2022-11-30T09:37:26.089Z,7.20
2022-11-30T09:39:53.869Z,7.18
2022-11-30T09:42:42.523Z,7.20
2022-11-30T09:45:17.758Z,7.18
2022-11-30T09:48:13.086Z,7.16
2022-11-30T09:50:44.935Z,7.17
2022-11-30T09:53:24.676Z,7.18
2022-11-30T09:55:57.651Z,7.15
2022-11-30T09:58:37.578Z,7.17
2022-11-30T10:01:14.534Z,7.16
2022-11-30T10:03:42.532Z,7.15
2022-11-30T10:06:16.213Z,7.16
2022-11-30T10:09:08.230Z,7.16
2022-11-30T10:11:46.554Z,7.18
2022-11-30T10:14:27.634Z,7.16
2022-11-30T10:17:02.820Z,7.15
2022-11-30T10:19:47.357Z,7.19
2022-11-30T10:22:25.113Z,7.17
2022-11-30T10:25:11.456Z,7.17
2022-11-30T10:27:49.964Z,7.17
2022-11-30T10:30:22.110Z,7.16
2022-11-30T10:32:53.726Z,7.16
2022-11-30T10:35:30.226Z,7.17
2022-11-30T10:38:01.213Z,7.16
2022-11-30T10:40:38.656Z,7.19
2022-11-30T10:43:18.660Z,7.19
2022-11-30T10:45:49.703Z,7.17
2022-11-30T10:48:23.218Z,7.19
2022-11-30T10:50:52.380Z,7.18
2022-11-30T10:53:20.377Z,7.18
2022-11-30T10:55:57.168Z,7.21
2022-11-30T10:58:29.344Z,7.17
2022-11-30T11:01:06.079Z,7.20
2022-11-30T11:03:34.643Z,7.19
2022-11-30T11:06:15.532Z,7.22
2022-11-30T11:08:45.469Z,7.19
2022-11-30T11:11:31.200Z,7.20
2022-11-30T11:14:18.852Z,7.19
2022-11-30T11:16:55.544Z,7.20
2022-11-30T11:19:26.113Z,7.16
2022-11-30T11:21:54.828Z,7.18
2022-11-30T11:24:27.842Z,7.20
2022-11-30T11:26:58.170Z,7.20
2022-11-30T11:29:33.293Z,7.21
2022-11-30T11:32:10.491Z,7.22
2022-11-30T11:34:38.373Z,7.18
2022-11-30T11:37:08.662Z,7.17
2022-11-30T11:39:36.999Z,7.17
2022-11-30T11:42:06.515Z,7.17
2022-11-30T11:44:34.400Z,7.16
2022-11-30T11:47:09.527Z,7.16
2022-11-30T11:49:38.977Z,7.15
2022-11-30T11:52:15.458Z,7.18
2022-11-30T11:54:50.854Z,7.16
2022-11-30T11:57:24.565Z,7.19
2022-11-30T11:59:58.177Z,7.18
2022-11-30T12:02:35.637Z,7.20
2022-11-30T12:05:11.309Z,7.19
2022-11-30T12:07:45.182Z,7.18
2022-11-30T12:13:19.773Z,7.18
2022-11-30T12:16:00.284Z,7.20
2022-11-30T12:18:36.892Z,7.20
2022-11-30T12:21:13.098Z,7.20
2022-11-30T12:23:56.357Z,7.22
2022-11-30T12:26:35.205Z,7.23
2022-11-30T12:29:22.533Z,7.23
2022-11-30T12:32:09.969Z,7.23
2022-11-30T12:34:57.855Z,7.24
2022-11-30T12:37:37.471Z,7.25
2022-11-30T12:40:21.946Z,7.25
2022-11-30T12:42:57.905Z,7.25
2022-11-30T12:45:34.976Z,7.26
2022-11-30T12:48:09.751Z,7.26
2022-11-30T12:50:52.657Z,7.28
2022-11-30T12:53:28.932Z,7.24
2022-11-30T12:56:11.981Z,7.29
2022-11-30T12:58:48.626Z,7.28
2022-11-30T13:01:33.076Z,7.30
2022-11-30T13:04:07.641Z,7.30
2022-11-30T13:06:40.439Z,7.30
2022-11-30T13:09:19.722Z,7.31
2022-11-30T13:11:53.857Z,7.30
2022-11-30T13:14:25.182Z,7.28
2022-11-30T13:17:02.210Z,7.29
2022-11-30T13:19:47.188Z,7.26
2022-11-30T13:22:22.303Z,7.26
2022-11-30T13:24:58.811Z,7.23
2022-11-30T13:27:35.685Z,7.21
2022-11-30T13:30:39.726Z,7.12
2022-11-30T13:33:49.356Z,7.14
2022-11-30T13:36:32.851Z,7.13
2022-11-30T13:39:31.525Z,7.06
2022-11-30T13:42:34.755Z,7.06
2022-11-30T13:45:33.255Z,7.07
2022-11-30T13:48:17.343Z,7.07
2022-11-30T13:50:49.086Z,7.08
2022-11-30T13:53:27.526Z,7.10
2022-11-30T13:56:01.652Z,7.10
2022-11-30T13:58:30.558Z,7.08
2022-11-30T14:01:22.603Z,7.09
2022-11-30T14:04:36.169Z,7.11
2022-11-30T14:07:26.262Z,7.08
2022-11-30T14:10:00.003Z,7.12
2022-11-30T14:12:58.800Z,7.13
2022-11-30T14:16:00.482Z,7.12
2022-11-30T14:18:41.195Z,7.13
2022-11-30T14:21:19.102Z,7.14
2022-11-30T14:23:55.295Z,7.13
2022-11-30T14:26:28.520Z,7.13
2022-11-30T14:29:03.379Z,7.13
2022-11-30T14:31:35.218Z,7.12
2022-11-30T14:34:10.205Z,7.12
2022-11-30T14:36:42.765Z,7.11
2022-11-30T14:39:26.779Z,7.12
2022-11-30T14:41:55.118Z,7.10
2022-11-30T14:44:22.973Z,7.09
2022-11-30T14:46:50.998Z,7.10
2022-11-30T14:49:21.117Z,7.12
2022-11-30T14:51:52.953Z,7.11
2022-11-30T14:54:37.804Z,7.11
2022-11-30T14:57:13.931Z,7.10
2022-11-30T14:59:49.254Z,7.11
2022-11-30T15:02:29.706Z,7.10
2022-11-30T15:04:59.783Z,7.07
2022-11-30T15:07:30.132Z,7.09
2022-11-30T15:10:04.828Z,7.10
2022-11-30T15:12:33.548Z,7.07
2022-11-30T15:15:15.307Z,7.10
2022-11-30T15:17:54.904Z,7.09
2022-11-30T15:20:30.196Z,7.08
2022-11-30T15:22:59.934Z,7.09
2022-11-30T15:25:41.844Z,7.10
2022-11-30T15:28:17.211Z,7.10
2022-11-30T15:30:49.990Z,7.08
2022-11-30T15:33:21.146Z,7.09
2022-11-30T15:36:15.905Z,7.10
2022-11-30T15:38:40.083Z,7.07
2022-11-30T15:41:19.967Z,7.11
2022-11-30T15:43:52.187Z,7.10
2022-11-30T15:46:32.649Z,7.10
2022-11-30T15:49:17.675Z,7.10
2022-11-30T15:51:47.380Z,7.08
2022-11-30T15:54:15.532Z,7.08
2022-11-30T15:56:57.498Z,7.10
2022-11-30T15:59:28.845Z,7.09
2022-11-30T16:02:08.438Z,7.09
2022-11-30T16:05:06.510Z,7.08
2022-11-30T16:07:39.486Z,7.07
2022-11-30T16:10:14.701Z,7.07
2022-11-30T16:12:44.911Z,7.08
2022-11-30T16:15:18.462Z,7.09
2022-11-30T16:17:46.715Z,7.06
2022-11-30T16:20:15.980Z,7.07
2022-11-30T16:22:45.144Z,7.09
2022-11-30T16:25:14.918Z,7.09
2022-11-30T16:27:44.851Z,7.07
2022-11-30T16:30:16.996Z,7.08
2022-11-30T16:32:45.486Z,7.08
2022-11-30T16:35:20.147Z,7.10
2022-11-30T16:37:48.249Z,7.09
2022-11-30T16:40:16.501Z,7.08
2022-11-30T16:42:45.932Z,7.09
2022-11-30T16:45:16.874Z,7.09
2022-11-30T16:47:45.072Z,7.07
2022-11-30T16:50:14.673Z,7.06
2022-11-30T16:52:43.587Z,7.06
2022-11-30T16:55:14.952Z,7.07
2022-11-30T16:57:43.183Z,7.06
2022-11-30T17:00:15.576Z,7.07
2022-11-30T17:02:49.681Z,7.06
2022-11-30T17:05:17.893Z,7.06
2022-11-30T17:07:45.894Z,7.04
2022-11-30T17:10:14.106Z,7.07
2022-11-30T17:12:42.113Z,7.06
2022-11-30T17:15:16.432Z,7.09
2022-11-30T17:17:44.599Z,7.05
2022-11-30T17:20:14.115Z,7.07
2022-11-30T17:22:43.828Z,7.08
2022-11-30T17:25:15.991Z,7.08
2022-11-30T17:27:43.842Z,7.05
2022-11-30T17:30:14.856Z,7.09
2022-11-30T17:32:42.672Z,7.07
2022-11-30T17:35:11.322Z,7.09
2022-11-30T17:37:39.619Z,7.08
2022-11-30T17:40:11.421Z,7.09
2022-11-30T17:42:39.325Z,7.07
2022-11-30T17:45:08.177Z,7.09
2022-11-30T17:47:37.596Z,7.09
2022-11-30T17:50:06.760Z,7.10
2022-11-30T17:52:34.635Z,7.09
2022-11-30T17:55:03.323Z,7.07
2022-11-30T17:57:31.878Z,7.08
2022-11-30T17:59:59.776Z,7.08
2022-11-30T18:02:27.646Z,7.06
2022-11-30T18:04:56.844Z,7.09
2022-11-30T18:07:25.094Z,7.09
2022-11-30T18:09:52.894Z,7.06
2022-11-30T18:12:20.736Z,7.07
2022-11-30T18:14:49.222Z,7.06
2022-11-30T18:17:17.266Z,7.08
2022-11-30T18:19:45.009Z,7.07
2022-11-30T18:22:14.159Z,7.08
2022-11-30T18:24:41.970Z,7.07
2022-11-30T18:27:09.945Z,7.05
2022-11-30T18:29:38.069Z,7.04
2022-11-30T18:32:06.628Z,7.04
2022-11-30T18:34:34.410Z,7.03
2022-11-30T18:37:02.377Z,7.01
2022-11-30T18:39:31.632Z,7.02
2022-11-30T18:41:59.446Z,6.98
2022-11-30T18:44:27.415Z,6.98
2022-11-30T18:46:55.238Z,6.96
2022-11-30T18:49:23.634Z,6.96
2022-11-30T18:51:51.544Z,6.96
2022-11-30T18:54:19.972Z,6.92
2022-11-30T18:56:49.453Z,6.95
2022-11-30T18:59:18.027Z,6.93
2022-11-30T19:01:46.463Z,6.93
2022-11-30T19:04:14.894Z,6.93
2022-11-30T19:06:43.759Z,6.93
2022-11-30T19:09:14.051Z,6.93
2022-11-30T19:11:43.344Z,6.93
2022-11-30T19:14:14.490Z,6.93
2022-11-30T19:16:43.474Z,6.93
2022-11-30T19:19:13.860Z,6.94
2022-11-30T19:21:44.202Z,6.95
2022-11-30T19:24:12.267Z,6.93
2022-11-30T19:26:40.779Z,6.94
2022-11-30T19:29:09.383Z,6.94
2022-11-30T19:31:38.792Z,6.94
2022-11-30T19:34:12.539Z,6.94
2022-11-30T19:36:41.966Z,6.95
2022-11-30T19:39:11.308Z,6.96
2022-11-30T19:41:39.384Z,6.95
2022-11-30T19:44:07.242Z,6.96
2022-11-30T19:46:35.377Z,6.97
2022-11-30T19:49:04.754Z,6.97
2022-11-30T19:51:33.008Z,6.97
2022-11-30T19:54:01.728Z,6.97
2022-11-30T19:56:31.583Z,6.98
2022-11-30T19:59:05.026Z,6.98
2022-11-30T20:01:35.251Z,6.96
2022-11-30T20:04:05.421Z,6.99
2022-11-30T20:06:35.952Z,6.96
2022-11-30T20:09:05.354Z,6.98
2022-11-30T20:11:34.482Z,6.97
2022-11-30T20:14:02.851Z,6.97
2022-11-30T20:16:31.011Z,6.96
2022-11-30T20:19:01.227Z,6.97
2022-11-30T20:21:32.044Z,6.96
2022-11-30T20:24:02.550Z,6.95
2022-11-30T20:26:32.844Z,6.96
2022-11-30T20:29:02.723Z,6.95
2022-11-30T20:31:32.156Z,6.93
2022-11-30T20:34:00.070Z,6.91
2022-11-30T20:36:28.615Z,6.90
2022-11-30T20:38:59.250Z,6.91
2022-11-30T20:41:27.813Z,6.88
2022-11-30T20:43:58.739Z,6.88
2022-11-30T20:46:29.022Z,6.86
2022-11-30T20:48:57.708Z,6.84
2022-11-30T20:51:31.782Z,6.84
2022-11-30T20:54:03.732Z,6.81
2022-11-30T20:56:31.592Z,6.82
2022-11-30T20:59:03.162Z,6.84
2022-11-30T21:01:31.545Z,6.81
2022-11-30T21:04:02.636Z,6.81
2022-11-30T21:06:31.257Z,6.81
2022-11-30T21:09:00.605Z,6.80
2022-11-30T21:11:30.753Z,6.79
2022-11-30T21:13:59.036Z,6.77
2022-11-30T21:16:29.781Z,6.78
2022-11-30T21:18:59.535Z,6.75
2022-11-30T21:21:30.477Z,6.76
2022-11-30T21:24:00.285Z,6.72
2022-11-30T21:26:31.467Z,6.74
2022-11-30T21:29:02.086Z,6.71
2022-11-30T21:31:31.299Z,6.72
2022-11-30T21:33:59.459Z,6.72
2022-11-30T21:36:27.815Z,6.72
2022-11-30T21:39:04.102Z,6.72
2022-11-30T21:41:35.210Z,6.73
2022-11-30T21:44:03.737Z,6.69
2022-11-30T21:46:33.985Z,6.70
2022-11-30T21:49:02.274Z,6.71
2022-11-30T21:51:32.141Z,6.72
2022-11-30T21:54:05.615Z,6.71
2022-11-30T21:56:37.221Z,6.71
2022-11-30T21:59:06.904Z,6.71
2022-11-30T22:01:36.647Z,6.71
2022-11-30T22:04:06.819Z,6.71
2022-11-30T22:06:39.964Z,6.71
2022-11-30T22:09:09.710Z,6.70
2022-11-30T22:11:41.168Z,6.70
2022-11-30T22:14:12.618Z,6.71
2022-11-30T22:16:40.812Z,6.69
2022-11-30T22:19:09.268Z,6.69
2022-11-30T22:21:37.266Z,6.69
2022-11-30T22:24:06.688Z,6.70
2022-11-30T22:26:36.558Z,6.69
2022-11-30T22:29:07.949Z,6.70
2022-11-30T22:31:37.868Z,6.70
2022-11-30T22:34:06.292Z,6.68
2022-11-30T22:36:36.593Z,6.70
2022-11-30T22:39:06.568Z,6.69
2022-11-30T22:41:34.665Z,6.67
2022-11-30T22:44:02.778Z,6.67
2022-11-30T22:46:33.874Z,6.69
2022-11-30T22:49:02.646Z,6.67
2022-11-30T22:51:32.605Z,6.67
2022-11-30T22:54:01.204Z,6.67
2022-11-30T22:56:31.281Z,6.66
2022-11-30T22:59:01.091Z,6.68
2022-11-30T23:01:31.966Z,6.68
2022-11-30T23:04:04.197Z,6.68
2022-11-30T23:06:32.342Z,6.67
2022-11-30T23:09:00.730Z,6.68
2022-11-30T23:11:29.789Z,6.70
2022-11-30T23:13:57.641Z,6.69
2022-11-30T23:16:26.053Z,6.70
2022-11-30T23:18:57.156Z,6.71
2022-11-30T23:21:26.709Z,6.71
2022-11-30T23:23:56.305Z,6.72
2022-11-30T23:26:26.259Z,6.71
2022-11-30T23:28:55.436Z,6.71
2022-11-30T23:31:33.808Z,6.72
2022-11-30T23:34:07.367Z,6.71
2022-11-30T23:36:36.862Z,6.70
2022-11-30T23:39:06.300Z,6.71
2022-11-30T23:41:34.315Z,6.70
2022-11-30T23:44:02.552Z,6.70
2022-11-30T23:46:30.933Z,6.70
2022-11-30T23:48:59.038Z,6.71
2022-11-30T23:51:28.390Z,6.72
2022-11-30T23:53:56.286Z,6.71
2022-11-30T23:56:25.306Z,6.71
2022-11-30T23:58:53.536Z,6.71
